Salem, UT (84653)

2:22 PM MDT on September 21, 2014 (GMT -0600)
Ironrod | Change Station
CLOSE
Current Station
Personal Weather Station
Location: Elk Ridge, UT
Elevation: 5420 ft
Nearby Weather Stations

Elev 5420 ft 40.01 °N, 111.68 °W | Updated 2 minutes ago

Rain
Rain
62.0 °F
Feels Like 62.0 °F
N
0.0
Wind Variable Wind from North
Gusts 4.0 mph

Today
High -- | Low -- °F
--% Chance of Precip.
Yesterday
High -- | Low -- °F
Precip. -- in
7:13 AM 7:25 PM
Waning Crescent, 5% visible
Pressure 30.23 in
Visibility 10.0 miles
Clouds Few 5500 ft
Mostly Cloudy 6500 ft
Overcast 8000 ft
Dew Point 56 °F
Humidity 80%
Rainfall 0.00 in
Snow Depth 0 in , 0 in , 0 in
UV 2 out of 12
Pollen 3.80 out of 12
Air Quality Not available.
Flu Activity Not available.
METAR KPVU 211947Z 16008KT 10SM FEW055 BKN065 OVC080 18/15 A3023

More Conditions Fewer Conditions

Pressure 30.23 in
Visibility 10.0 miles
Clouds Few 5500 ft
Mostly Cloudy 6500 ft
Overcast 8000 ft
Dew Point 56 °F
Humidity 80%
Rainfall 0.00 in
Snow Depth 0 in , 0 in , 0 in
UV 2 out of 12
Pollen 3.80 out of 12
Air Quality Not available.
Flu Activity Not available.
METAR KPVU 211947Z 16008KT 10SM FEW055 BKN065 OVC080 18/15 A3023

More Conditions Fewer Conditions

10-Day Weather Forecast

Almanac

Astronomy

Sep. 21, 2014 Rise Set
Actual Time 7:13 AM MDT 7:25 PM MDT
Civil Twilight 6:46 AM MDT 7:52 PM MDT
Nautical Twilight 6:14 AM MDT 8:23 PM MDT
Astronomical Twilight 5:42 AM MDT 8:56 PM MDT
Moon 4:50 AM MDT 6:03 PM MDT
Length of Visible Light 13h 06m
Length of Day
12h 11m
Tomorrow will be 2m 38s shorter.
Waning Crescent, 5% of the Moon is Illuminated
Today
Waning Crescent
Sep 24
New
Oct 1
First Quarter
Oct 8
Full
Oct 15
Last Quarter

Today's Extremes

State Highs State Lows

Community

WunderPhotos

Upload Photos

1,755,244 photos uploaded!

Nearby

Snow Depth

Station Depth Elevation
Clayton Springs 0 in 10000 ft
Farmington 0 in 8000 ft
Temple Fork 0 in 7406 ft
Hewinta 0 in 9500 ft
Clear Creek #2 1 in 8300 ft

Earthquake Activity

City Distance Mag. Time & Date
No recent earthquake activity has been reported nearby.
Minimum magnitude displayed is 2.5.

Coastal Water Temperatures

Place Temperature
No Stations Reporting

Nearby Weather Stations